createdAt,value
2019-02-05T00:02:21.468Z,4.40
2019-02-05T00:04:50.321Z,4.30
2019-02-05T00:07:19.066Z,4.30
2019-02-05T00:09:48.040Z,4.20
2019-02-05T00:12:16.932Z,4.20
2019-02-05T00:14:45.595Z,4.20
2019-02-05T00:17:15.030Z,4.20
2019-02-05T00:19:43.644Z,4.30
2019-02-05T00:22:12.265Z,4.20
2019-02-05T00:24:41.273Z,4.20
2019-02-05T00:27:10.040Z,4.20
2019-02-05T00:29:38.655Z,4.20
2019-02-05T00:32:07.348Z,4.30
2019-02-05T00:34:35.966Z,4.20
2019-02-05T00:37:05.019Z,4.20
2019-02-05T00:39:33.624Z,4.20
2019-02-05T00:42:02.245Z,4.30
2019-02-05T00:44:30.851Z,4.30
2019-02-05T00:46:59.478Z,4.30
2019-02-05T00:49:28.076Z,4.30
2019-02-05T00:51:56.695Z,4.40
2019-02-05T00:54:25.298Z,4.30
2019-02-05T00:56:54.194Z,4.30
2019-02-05T00:59:22.787Z,4.30
2019-02-05T01:01:51.498Z,4.40
2019-02-05T01:04:20.182Z,4.40
2019-02-05T01:06:48.869Z,4.40
2019-02-05T01:09:17.569Z,4.40
2019-02-05T01:11:46.355Z,4.40
2019-02-05T01:14:14.991Z,4.50
2019-02-05T01:16:43.747Z,4.50
2019-02-05T01:19:12.403Z,4.50
2019-02-05T01:21:41.040Z,4.50
2019-02-05T01:24:09.734Z,4.50
2019-02-05T01:26:38.814Z,4.50
2019-02-05T01:29:07.756Z,4.50
2019-02-05T01:31:36.357Z,4.50
2019-02-05T01:34:05.343Z,4.50
2019-02-05T01:36:33.931Z,4.50
2019-02-05T01:39:03.319Z,4.60
2019-02-05T01:41:32.442Z,4.60
2019-02-05T01:44:01.180Z,4.50
2019-02-05T01:46:29.793Z,4.50
2019-02-05T01:48:58.411Z,4.50
2019-02-05T01:51:27.071Z,4.50
2019-02-05T01:53:55.740Z,4.50
2019-02-05T01:56:24.346Z,4.50
2019-02-05T01:58:53.299Z,4.50
2019-02-05T02:01:21.931Z,5.30
2019-02-05T02:03:50.615Z,5.40
2019-02-05T02:06:19.299Z,4.90
2019-02-05T02:08:48.070Z,4.60
2019-02-05T02:11:16.833Z,4.60
2019-02-05T02:13:45.720Z,4.40
2019-02-05T02:16:14.413Z,4.40
2019-02-05T02:18:43.290Z,4.30
2019-02-05T02:21:14.947Z,4.30
2019-02-05T02:23:43.594Z,4.20
2019-02-05T02:26:12.202Z,4.20
2019-02-05T02:28:41.124Z,4.20
2019-02-05T02:31:09.741Z,4.10
2019-02-05T02:33:38.363Z,4.10
2019-02-05T02:36:07.053Z,4.10
2019-02-05T02:38:35.697Z,4.10
2019-02-05T02:41:04.427Z,4.00
2019-02-05T02:43:33.282Z,3.90
2019-02-05T02:46:01.903Z,3.90
2019-02-05T02:48:30.600Z,3.90
2019-02-05T02:50:59.212Z,3.90
2019-02-05T02:53:27.854Z,3.90
2019-02-05T02:55:56.460Z,3.90
2019-02-05T02:58:25.145Z,3.80
2019-02-05T03:00:53.983Z,3.80
2019-02-05T03:03:22.611Z,3.80
2019-02-05T03:15:44.192Z,3.70
2019-02-05T03:18:13.254Z,3.60
2019-02-05T03:20:41.890Z,3.70
2019-02-05T03:23:10.505Z,3.80
2019-02-05T03:25:39.120Z,3.70
2019-02-05T03:28:07.745Z,3.70
2019-02-05T03:30:36.674Z,3.70
2019-02-05T03:33:05.304Z,3.70
2019-02-05T03:35:34.006Z,3.70
2019-02-05T03:38:02.874Z,3.60
2019-02-05T03:41:03.620Z,3.60
2019-02-05T03:43:32.731Z,3.70
2019-02-05T03:46:03.619Z,3.70
2019-02-05T03:48:33.365Z,3.70
2019-02-05T03:51:37.586Z,3.70
2019-02-05T03:54:16.796Z,3.70
2019-02-05T03:56:57.811Z,3.70
2019-02-05T03:59:41.589Z,3.70
2019-02-05T04:02:41.648Z,3.70
2019-02-05T04:05:45.419Z,3.70
2019-02-05T04:08:42.709Z,3.80
2019-02-05T04:11:47.161Z,3.80
2019-02-05T04:15:05.277Z,3.60
2019-02-05T04:18:00.126Z,3.70
2019-02-05T04:20:54.541Z,3.70
2019-02-05T04:23:47.250Z,3.80
2019-02-05T04:26:35.559Z,3.70
2019-02-05T04:29:43.642Z,3.70
2019-02-05T04:32:31.299Z,3.70
2019-02-05T04:35:23.880Z,3.70
2019-02-05T04:38:27.105Z,3.70
2019-02-05T04:41:06.596Z,3.80
2019-02-05T04:44:16.531Z,3.70
2019-02-05T04:46:57.063Z,3.70
2019-02-05T04:50:00.624Z,3.80
2019-02-05T04:52:52.640Z,3.80
2019-02-05T04:55:37.622Z,3.80
2019-02-05T04:58:56.266Z,3.80
2019-02-05T05:01:52.983Z,3.70
2019-02-05T05:04:37.505Z,3.80
2019-02-05T05:07:27.437Z,3.70
2019-02-05T05:10:06.318Z,3.80
2019-02-05T05:12:34.939Z,3.70
2019-02-05T05:15:04.354Z,3.70
2019-02-05T05:17:33.065Z,3.70
2019-02-05T05:20:01.680Z,3.70
2019-02-05T05:22:30.532Z,3.70
2019-02-05T05:24:59.406Z,3.80
2019-02-05T05:27:28.420Z,3.70
2019-02-05T05:29:57.298Z,3.70
2019-02-05T05:32:26.043Z,3.80
2019-02-05T05:34:54.665Z,3.70
2019-02-05T05:37:23.314Z,3.70
2019-02-05T05:39:52.022Z,3.70
2019-02-05T05:42:20.645Z,3.70
2019-02-05T05:44:49.367Z,3.70
2019-02-05T05:47:17.997Z,3.70
2019-02-05T05:49:46.627Z,3.70
2019-02-05T05:52:15.239Z,3.70
2019-02-05T05:54:43.883Z,3.70
2019-02-05T05:57:12.502Z,3.70
2019-02-05T05:59:41.145Z,3.70
2019-02-05T06:02:09.759Z,3.70
2019-02-05T06:04:38.531Z,3.70
2019-02-05T06:07:07.177Z,3.70
2019-02-05T06:09:35.832Z,3.70
2019-02-05T06:12:04.664Z,3.70
2019-02-05T06:14:33.324Z,3.70
2019-02-05T06:17:02.009Z,3.70
2019-02-05T06:19:30.643Z,3.70
2019-02-05T06:21:59.288Z,3.70
2019-02-05T06:24:27.921Z,3.60
2019-02-05T06:26:56.511Z,3.70
2019-02-05T06:29:25.147Z,3.70
2019-02-05T06:31:53.913Z,3.70
2019-02-05T06:34:22.816Z,3.70
2019-02-05T06:36:51.420Z,3.80
2019-02-05T06:39:20.067Z,3.70
2019-02-05T06:41:48.868Z,3.70
2019-02-05T06:44:17.567Z,3.70
2019-02-05T06:46:46.268Z,3.70
2019-02-05T06:49:14.883Z,3.70
2019-02-05T06:51:43.872Z,3.70
2019-02-05T06:54:12.511Z,3.70
2019-02-05T06:56:42.496Z,3.70
2019-02-05T06:59:11.465Z,3.70
2019-02-05T07:01:40.109Z,3.70
2019-02-05T07:04:08.993Z,3.70
2019-02-05T07:06:37.635Z,3.70
2019-02-05T07:09:09.515Z,3.70
2019-02-05T07:11:38.148Z,3.70
2019-02-05T07:14:07.488Z,3.70
2019-02-05T07:16:36.106Z,3.60
2019-02-05T07:19:04.989Z,3.70
2019-02-05T07:21:33.692Z,3.70
2019-02-05T07:24:02.794Z,3.70
2019-02-05T07:26:31.415Z,3.70
2019-02-05T07:29:02.041Z,3.70
2019-02-05T07:31:30.605Z,3.70
2019-02-05T07:33:59.239Z,3.80
2019-02-05T07:36:27.962Z,3.70
2019-02-05T07:38:56.639Z,3.80
2019-02-05T07:41:25.451Z,3.80
2019-02-05T07:43:54.077Z,3.80
2019-02-05T07:46:22.797Z,3.80
2019-02-05T07:48:51.410Z,3.80
2019-02-05T07:51:20.049Z,3.80
2019-02-05T07:53:48.684Z,3.80
2019-02-05T07:56:17.543Z,3.80
2019-02-05T07:58:46.291Z,3.80
2019-02-05T08:01:17.594Z,3.80
2019-02-05T08:03:45.539Z,3.90
2019-02-05T08:06:15.838Z,4.20
2019-02-05T08:08:44.572Z,4.00
2019-02-05T08:11:13.644Z,4.00
2019-02-05T08:13:42.645Z,3.80
2019-02-05T08:16:11.560Z,3.90
2019-02-05T08:18:40.209Z,3.80
2019-02-05T08:21:08.835Z,3.90
2019-02-05T08:23:37.439Z,3.90
2019-02-05T08:26:06.147Z,6.30
2019-02-05T08:28:41.031Z,6.50
2019-02-05T08:31:05.267Z,5.90
2019-02-05T08:33:34.123Z,5.10
2019-02-05T08:36:02.751Z,4.80
2019-02-05T08:38:31.373Z,4.60
2019-02-05T08:41:00.076Z,4.50
2019-02-05T08:43:28.723Z,4.30
2019-02-05T08:45:57.436Z,4.20
2019-02-05T08:48:26.100Z,4.10
2019-02-05T08:50:54.880Z,4.10
2019-02-05T08:53:23.543Z,4.10
2019-02-05T08:55:52.355Z,4.10
2019-02-05T08:58:30.731Z,4.10
2019-02-05T09:00:51.375Z,4.10
2019-02-05T09:03:20.012Z,4.10
2019-02-05T09:05:48.703Z,4.10
2019-02-05T09:08:17.332Z,4.10
2019-02-05T09:10:46.023Z,4.10
2019-02-05T09:13:14.927Z,4.00
2019-02-05T09:15:43.544Z,4.10
2019-02-05T09:18:12.432Z,4.10
2019-02-05T09:20:41.167Z,4.20
2019-02-05T09:23:10.116Z,4.10
2019-02-05T09:25:38.974Z,4.20
2019-02-05T09:28:07.804Z,4.20
2019-02-05T09:30:36.916Z,4.20
2019-02-05T09:33:08.458Z,4.20
2019-02-05T09:35:37.070Z,4.20
2019-02-05T09:38:05.731Z,4.20
2019-02-05T09:40:34.766Z,4.20
2019-02-05T09:43:03.685Z,4.20
2019-02-05T09:45:32.624Z,4.30
2019-02-05T09:48:01.638Z,4.30
2019-02-05T09:50:31.102Z,4.30
2019-02-05T09:53:00.918Z,5.10
2019-02-05T09:55:29.556Z,4.70
2019-02-05T09:57:58.260Z,4.50
2019-02-05T10:00:32.371Z,4.50
2019-02-05T10:03:01.356Z,4.50
2019-02-05T10:05:30.777Z,4.40
2019-02-05T10:07:59.496Z,4.40
2019-02-05T10:10:28.270Z,5.50
2019-02-05T10:12:57.068Z,4.90
2019-02-05T10:15:28.018Z,4.80
2019-02-05T10:17:56.787Z,5.60
2019-02-05T10:20:25.940Z,5.10
2019-02-05T10:22:56.700Z,4.80
2019-02-05T10:25:25.578Z,4.70
2019-02-05T10:27:54.212Z,4.50
2019-02-05T10:30:25.276Z,4.50
2019-02-05T10:32:54.129Z,4.40
2019-02-05T10:35:24.461Z,4.40
2019-02-05T10:37:56.159Z,4.40
2019-02-05T10:40:25.651Z,4.40
2019-02-05T10:42:54.564Z,4.40
2019-02-05T10:45:24.588Z,4.40
2019-02-05T10:47:53.354Z,4.50
2019-02-05T10:50:22.687Z,4.50
2019-02-05T10:52:51.697Z,4.50
2019-02-05T10:55:20.702Z,6.80
2019-02-05T10:57:49.740Z,7.60
2019-02-05T11:02:47.941Z,6.00
2019-02-05T11:05:19.164Z,5.40
2019-02-05T11:07:48.268Z,5.20
2019-02-05T11:10:17.363Z,5.10
2019-02-05T11:12:46.100Z,4.90
2019-02-05T11:15:17.195Z,4.60
2019-02-05T11:17:46.598Z,4.70
2019-02-05T11:20:17.510Z,4.70
2019-02-05T11:22:47.575Z,4.70
2019-02-05T11:25:16.656Z,4.70
2019-02-05T11:27:46.118Z,4.60
2019-02-05T11:30:23.516Z,4.50
2019-02-05T11:32:52.991Z,4.50
2019-02-05T11:35:21.981Z,4.60
2019-02-05T11:37:51.110Z,4.60
2019-02-05T11:40:29.137Z,4.60
2019-02-05T11:42:57.839Z,4.60
2019-02-05T11:45:26.680Z,4.50
2019-02-05T11:47:55.651Z,4.50
2019-02-05T11:50:24.520Z,4.60
2019-02-05T11:52:53.569Z,4.50
2019-02-05T11:55:23.877Z,4.50
2019-02-05T11:57:52.529Z,4.50
2019-02-05T12:00:38.664Z,4.50
2019-02-05T12:03:08.624Z,4.50
2019-02-05T12:05:37.621Z,4.50
2019-02-05T12:08:06.683Z,4.50
2019-02-05T12:10:35.378Z,4.50
2019-02-05T12:13:04.271Z,4.50
2019-02-05T12:15:33.052Z,4.50
2019-02-05T12:18:01.787Z,4.40
2019-02-05T12:20:30.577Z,4.50
2019-02-05T12:22:59.671Z,4.50
2019-02-05T12:25:28.557Z,4.50
2019-02-05T12:27:57.265Z,4.50
2019-02-05T12:30:28.444Z,4.30
2019-02-05T12:32:57.317Z,4.30
2019-02-05T12:35:25.935Z,4.40
2019-02-05T12:37:54.813Z,4.50
2019-02-05T12:40:23.759Z,4.40
2019-02-05T12:42:52.671Z,4.40
2019-02-05T12:45:24.236Z,4.20
2019-02-05T12:47:53.083Z,4.30
2019-02-05T12:50:24.229Z,4.30
2019-02-05T12:52:53.485Z,4.40
2019-02-05T12:55:22.586Z,4.40
2019-02-05T12:57:51.375Z,4.40
2019-02-05T13:00:22.916Z,4.40
2019-02-05T13:02:54.486Z,4.40
2019-02-05T13:05:22.314Z,4.40
2019-02-05T13:07:50.902Z,4.40
2019-02-05T13:10:22.082Z,4.40
2019-02-05T13:12:50.737Z,4.40
2019-02-05T13:15:19.523Z,4.40
2019-02-05T13:17:48.332Z,4.40
2019-02-05T13:20:20.037Z,4.40
2019-02-05T13:22:48.955Z,4.40
2019-02-05T13:25:20.087Z,4.40
2019-02-05T13:27:48.796Z,4.40
2019-02-05T13:30:20.020Z,4.40
2019-02-05T13:32:48.756Z,4.30
2019-02-05T13:35:17.540Z,4.40
2019-02-05T13:37:46.198Z,4.30
2019-02-05T13:40:17.852Z,4.30
2019-02-05T13:42:46.863Z,4.40
2019-02-05T13:45:17.952Z,4.40
2019-02-05T13:47:46.600Z,4.30
2019-02-05T13:50:32.501Z,4.30
2019-02-05T13:52:53.827Z,4.30
2019-02-05T13:55:25.305Z,4.40
2019-02-05T13:57:54.061Z,4.40
2019-02-05T14:00:27.894Z,4.40
2019-02-05T14:02:56.800Z,4.50
2019-02-05T14:05:26.001Z,4.30
2019-02-05T14:07:54.705Z,4.40
2019-02-05T14:10:26.371Z,4.40
2019-02-05T14:12:55.156Z,4.40
2019-02-05T14:15:25.791Z,4.40
2019-02-05T14:17:54.585Z,4.40
2019-02-05T14:20:24.147Z,4.40
2019-02-05T14:22:52.752Z,4.40
2019-02-05T14:25:21.847Z,4.40
2019-02-05T14:27:50.620Z,4.50
2019-02-05T14:30:31.045Z,4.40
2019-02-05T14:32:59.845Z,4.40
2019-02-05T14:35:28.945Z,4.40
2019-02-05T14:37:57.969Z,4.40
2019-02-05T14:40:26.842Z,4.40
2019-02-05T14:42:56.437Z,4.40
2019-02-05T14:45:25.143Z,4.40
2019-02-05T14:47:54.041Z,4.40
2019-02-05T14:50:24.962Z,4.40
2019-02-05T14:52:53.772Z,4.40
2019-02-05T14:55:22.758Z,4.40
2019-02-05T14:57:51.527Z,4.40
2019-02-05T15:00:39.676Z,4.40
2019-02-05T15:03:09.660Z,4.40
2019-02-05T15:05:39.148Z,4.40
2019-02-05T15:08:08.250Z,4.40
2019-02-05T15:10:36.972Z,4.40
2019-02-05T15:13:06.731Z,4.40
2019-02-05T15:15:35.847Z,4.40
2019-02-05T15:18:05.958Z,4.50
2019-02-05T15:20:37.052Z,4.50
2019-02-05T15:23:06.727Z,4.50
2019-02-05T15:25:35.525Z,4.50
2019-02-05T15:28:04.739Z,4.50
2019-02-05T15:30:38.145Z,4.50
2019-02-05T15:33:16.627Z,4.40
2019-02-05T15:35:50.162Z,4.40
2019-02-05T15:38:19.101Z,4.30
2019-02-05T15:40:48.359Z,4.40
2019-02-05T15:43:17.278Z,4.40
2019-02-05T15:45:46.082Z,4.50
2019-02-05T15:48:14.900Z,4.50
2019-02-05T15:50:43.719Z,4.50
2019-02-05T15:53:12.407Z,4.50
2019-02-05T15:55:41.509Z,4.50
2019-02-05T15:58:10.212Z,4.50
2019-02-05T16:00:39.116Z,4.50
2019-02-05T16:03:08.641Z,4.30
2019-02-05T16:05:37.524Z,4.40
2019-02-05T16:08:06.667Z,4.40
2019-02-05T16:10:35.492Z,4.40
2019-02-05T16:13:04.579Z,4.30
2019-02-05T16:15:33.344Z,4.30
2019-02-05T16:18:01.976Z,4.20
2019-02-05T16:20:30.786Z,4.30
2019-02-05T16:22:59.388Z,4.30
2019-02-05T16:25:28.133Z,4.40
2019-02-05T16:27:57.027Z,4.60
2019-02-05T16:30:25.776Z,4.50
2019-02-05T16:32:54.388Z,4.40
2019-02-05T16:35:23.135Z,4.40
2019-02-05T16:37:51.930Z,4.40
2019-02-05T16:40:22.719Z,4.40
2019-02-05T16:42:51.874Z,4.40
2019-02-05T16:45:22.851Z,4.40
2019-02-05T16:47:51.500Z,4.40
2019-02-05T16:50:22.768Z,4.40
2019-02-05T16:52:51.640Z,4.40
2019-02-05T16:55:20.700Z,4.30
2019-02-05T16:57:50.227Z,4.30
2019-02-05T17:00:21.473Z,4.20
2019-02-05T17:02:50.337Z,4.20
2019-02-05T17:05:20.023Z,4.30
2019-02-05T17:07:48.819Z,4.20
2019-02-05T17:10:18.560Z,4.10
2019-02-05T17:12:47.657Z,4.10
2019-02-05T17:15:17.052Z,4.10
2019-02-05T17:17:46.007Z,4.20
2019-02-05T17:20:18.308Z,4.20
2019-02-05T17:22:47.140Z,4.20
2019-02-05T17:25:17.271Z,4.30
2019-02-05T17:27:46.376Z,4.30
2019-02-05T17:30:17.768Z,4.30
2019-02-05T17:32:46.503Z,4.20
2019-02-05T17:35:15.212Z,4.30
2019-02-05T17:37:44.161Z,4.20
2019-02-05T17:40:15.251Z,4.10
2019-02-05T17:42:43.980Z,4.20
2019-02-05T17:45:32.967Z,4.20
2019-02-05T17:48:03.620Z,4.20
2019-02-05T17:50:32.271Z,4.10
2019-02-05T17:53:01.327Z,4.20
2019-02-05T17:55:30.127Z,4.20
2019-02-05T17:57:59.002Z,4.20
2019-02-05T18:00:56.812Z,4.10
2019-02-05T18:03:27.061Z,4.20
2019-02-05T18:05:55.966Z,4.10
2019-02-05T18:08:24.659Z,4.10
2019-02-05T18:10:53.595Z,6.80
2019-02-05T18:13:22.257Z,7.10
2019-02-05T18:15:50.932Z,7.00
2019-02-05T18:18:19.883Z,6.70
2019-02-05T18:20:48.541Z,5.80
2019-02-05T18:23:17.299Z,5.40
2019-02-05T18:25:46.047Z,5.10
2019-02-05T18:28:14.819Z,4.70
2019-02-05T18:30:43.492Z,4.70
2019-02-05T18:33:12.518Z,4.50
2019-02-05T18:35:41.187Z,4.50
2019-02-05T18:38:12.099Z,4.40
2019-02-05T18:40:40.849Z,4.40
2019-02-05T18:43:09.615Z,4.30
2019-02-05T18:45:38.329Z,4.30
2019-02-05T18:48:07.537Z,4.20
2019-02-05T18:50:36.237Z,4.20
2019-02-05T18:53:05.066Z,4.20
2019-02-05T18:55:34.239Z,4.20
2019-02-05T18:58:09.447Z,4.20
2019-02-05T19:00:38.676Z,4.20
2019-02-05T19:03:15.019Z,4.20
2019-02-05T19:05:37.088Z,4.10
2019-02-05T19:08:06.440Z,4.10
2019-02-05T19:10:35.194Z,4.20
2019-02-05T19:13:04.373Z,4.20
2019-02-05T19:15:34.377Z,4.20
2019-02-05T19:18:03.760Z,4.20
2019-02-05T19:20:32.549Z,4.20
2019-02-05T19:23:01.952Z,4.20
2019-02-05T19:25:48.315Z,4.30
2019-02-05T19:28:25.773Z,4.20
2019-02-05T19:30:57.238Z,4.20
2019-02-05T19:33:27.642Z,4.20
2019-02-05T19:35:56.327Z,4.20
2019-02-05T19:38:25.000Z,4.20
2019-02-05T19:40:57.679Z,4.10
2019-02-05T19:43:25.717Z,4.10
2019-02-05T19:46:02.607Z,4.10
2019-02-05T19:48:45.069Z,4.00
2019-02-05T19:51:16.164Z,4.00
2019-02-05T19:53:44.615Z,4.00
2019-02-05T19:56:14.642Z,4.00
2019-02-05T19:58:43.623Z,4.10
2019-02-05T20:01:12.320Z,4.10
2019-02-05T20:03:41.087Z,4.00
2019-02-05T20:06:09.737Z,4.00
2019-02-05T20:08:38.392Z,4.10
2019-02-05T20:11:07.201Z,4.10
2019-02-05T20:13:40.257Z,4.10
2019-02-05T20:16:06.648Z,4.10
2019-02-05T20:18:35.335Z,4.10
2019-02-05T20:21:04.124Z,4.10
2019-02-05T20:23:32.875Z,4.10
2019-02-05T20:26:01.780Z,4.10
2019-02-05T20:28:30.464Z,4.10
2019-02-05T20:30:59.435Z,4.10
2019-02-05T20:33:28.248Z,4.10
2019-02-05T20:35:56.886Z,4.10
2019-02-05T20:38:25.572Z,4.20
2019-02-05T20:40:54.388Z,4.20
2019-02-05T20:43:23.172Z,4.30
2019-02-05T20:45:51.863Z,4.20
2019-02-05T20:48:20.672Z,4.20
2019-02-05T20:50:49.369Z,4.20
2019-02-05T20:53:18.048Z,4.20
2019-02-05T20:55:47.273Z,4.20
2019-02-05T20:58:15.967Z,4.30
2019-02-05T21:00:44.751Z,4.30
2019-02-05T21:03:13.380Z,4.30
2019-02-05T21:05:42.265Z,4.30
2019-02-05T21:08:10.912Z,4.20
2019-02-05T21:10:39.753Z,4.20
2019-02-05T21:13:08.538Z,4.30
2019-02-05T21:15:37.246Z,4.20
2019-02-05T21:18:05.941Z,4.20
2019-02-05T21:20:34.759Z,4.10
2019-02-05T21:23:04.316Z,4.20
2019-02-05T21:25:32.981Z,4.20
2019-02-05T21:28:01.864Z,4.20
2019-02-05T21:30:31.226Z,4.20
2019-02-05T21:32:59.839Z,4.20
2019-02-05T21:35:28.495Z,4.20
2019-02-05T21:37:57.395Z,4.20
2019-02-05T21:40:26.119Z,4.30
2019-02-05T21:42:54.823Z,4.20
2019-02-05T21:45:23.965Z,4.30
2019-02-05T21:47:52.672Z,4.30
2019-02-05T21:50:22.438Z,4.30
2019-02-05T21:52:51.359Z,4.40
2019-02-05T21:55:20.396Z,4.40
2019-02-05T21:57:49.185Z,4.40
2019-02-05T22:00:20.574Z,4.30
2019-02-05T22:02:49.699Z,4.30
2019-02-05T22:05:18.479Z,4.30
2019-02-05T22:07:47.107Z,4.30
2019-02-05T22:10:15.937Z,4.30
2019-02-05T22:12:45.668Z,4.30
2019-02-05T22:15:14.966Z,4.30
2019-02-05T22:17:43.580Z,4.30
2019-02-05T22:20:17.352Z,4.30
2019-02-05T22:22:46.026Z,4.30
2019-02-05T22:25:17.739Z,4.20
2019-02-05T22:27:46.420Z,4.20
2019-02-05T22:30:18.179Z,4.20
2019-02-05T22:32:46.951Z,4.20
2019-02-05T22:35:16.349Z,4.30
2019-02-05T22:37:45.402Z,4.30
2019-02-05T22:40:14.621Z,4.20
2019-02-05T22:42:43.237Z,4.30
2019-02-05T22:45:12.868Z,4.30
2019-02-05T22:47:41.676Z,4.30
2019-02-05T22:50:13.597Z,4.30
2019-02-05T22:52:43.504Z,4.30
2019-02-05T22:55:13.050Z,4.30
2019-02-05T22:57:42.332Z,4.30
2019-02-05T23:00:38.165Z,4.30
2019-02-05T23:03:07.770Z,4.30
2019-02-05T23:06:20.606Z,4.20
2019-02-05T23:08:49.823Z,4.20
2019-02-05T23:11:41.260Z,4.20
2019-02-05T23:14:10.044Z,4.20
2019-02-05T23:16:38.735Z,4.20
2019-02-05T23:19:07.527Z,4.20
2019-02-05T23:21:36.549Z,4.20
2019-02-05T23:24:05.527Z,4.20
2019-02-05T23:26:34.183Z,4.30
2019-02-05T23:29:02.832Z,4.30
2019-02-05T23:31:31.495Z,4.30
2019-02-05T23:34:00.178Z,4.30
2019-02-05T23:36:28.827Z,4.20
2019-02-05T23:38:57.803Z,4.20
2019-02-05T23:41:26.428Z,4.30
2019-02-05T23:43:55.123Z,4.20
2019-02-05T23:46:23.774Z,4.20
2019-02-05T23:48:52.497Z,4.20
2019-02-05T23:51:21.354Z,4.20
2019-02-05T23:53:50.487Z,4.20
2019-02-05T23:56:25.591Z,4.20
2019-02-05T23:58:49.623Z,4.20
